Time;durP1;ratioP1;P1;durP2;ratioP2;P2;SDS_P1;SDS_P2;PMS_P1;PMS_P2;Temp;Humidity;BMP_temperature;BMP_pressure;BME280_temperature;BME280_humidity;BME280_pressure;Samples;Min_cycle;Max_cycle;Signal;HPM_P1;HPM_P2
2020/12/29 00:00:23;;;;;;;24.38;15.68;;;1.10;99.90;;;;;;5094269;28;20028;-71
2020/12/29 00:02:51;;;;;;;22.23;14.63;;;1.10;99.90;;;;;;5094076;28;20089;-71
2020/12/29 00:05:16;;;;;;;18.42;12.75;;;1.10;99.90;;;;;;5094253;28;20028;-71
2020/12/29 00:07:53;;;;;;;21.98;13.35;;;1.10;99.90;;;;;;5094765;28;20190;-71
2020/12/29 00:10:21;;;;;;;21.08;13.25;;;0.90;99.90;;;;;;5094472;28;20027;-71
2020/12/29 00:12:47;;;;;;;19.23;13.02;;;0.90;99.90;;;;;;5094436;28;20024;-71
2020/12/29 00:15:12;;;;;;;24.30;14.68;;;0.90;99.90;;;;;;5094696;28;20028;-71
2020/12/29 00:17:38;;;;;;;21.70;12.68;;;0.90;99.90;;;;;;5094613;28;20103;-71
2020/12/29 00:20:03;;;;;;;25.98;15.02;;;0.80;99.90;;;;;;5094561;28;20024;-71
2020/12/29 00:22:29;;;;;;;22.42;13.75;;;0.80;99.90;;;;;;5092939;28;20024;-71
2020/12/29 00:24:55;;;;;;;23.83;14.07;;;0.70;99.90;;;;;;5094233;28;20031;-71
2020/12/29 00:27:20;;;;;;;22.65;13.85;;;0.70;99.90;;;;;;5094460;28;20193;-71
2020/12/29 00:29:46;;;;;;;21.83;14.25;;;0.60;99.90;;;;;;5094413;28;20044;-71
2020/12/29 00:32:11;;;;;;;21.95;13.50;;;0.50;99.90;;;;;;5094394;28;20077;-70
2020/12/29 00:34:37;;;;;;;23.00;14.02;;;0.50;99.90;;;;;;5094328;28;20492;-71
2020/12/29 00:37:02;;;;;;;23.27;13.77;;;0.40;99.90;;;;;;5094026;28;20038;-71
2020/12/29 00:39:28;;;;;;;25.73;15.70;;;0.30;99.90;;;;;;5093577;28;20108;-72
2020/12/29 00:41:55;;;;;;;26.92;14.05;;;0.30;99.90;;;;;;5094254;28;20464;-71
2020/12/29 00:44:20;;;;;;;23.75;14.60;;;0.30;99.90;;;;;;5094278;28;20540;-71
2020/12/29 00:46:46;;;;;;;30.52;17.25;;;0.30;99.90;;;;;;5094173;28;20051;-71
2020/12/29 00:49:11;;;;;;;27.00;15.57;;;0.20;99.90;;;;;;5094179;28;20107;-71
2020/12/29 00:51:37;;;;;;;27.15;16.17;;;0.20;99.90;;;;;;5094111;28;20027;-71
2020/12/29 00:54:03;;;;;;;29.98;17.60;;;0.20;99.90;;;;;;5093820;28;20035;-71
2020/12/29 00:56:28;;;;;;;29.35;17.25;;;0.40;99.90;;;;;;5094089;28;20028;-71
2020/12/29 00:58:54;;;;;;;28.95;17.02;;;0.30;99.90;;;;;;5094080;28;20365;-71
2020/12/29 01:01:19;;;;;;;28.45;17.05;;;0.30;99.90;;;;;;5093721;28;20109;-71
2020/12/29 01:03:45;;;;;;;24.60;15.10;;;0.30;99.90;;;;;;5093041;28;20115;-70
2020/12/29 01:06:11;;;;;;;22.38;14.07;;;0.30;99.90;;;;;;5094003;28;20021;-71
2020/12/29 01:08:37;;;;;;;21.90;13.43;;;0.20;99.90;;;;;;5094027;28;20419;-71
2020/12/29 01:11:03;;;;;;;24.48;14.57;;;0.20;99.90;;;;;;5092396;28;20032;-70
2020/12/29 01:13:29;;;;;;;22.67;12.75;;;0.20;99.90;;;;;;5095424;28;20056;-71
2020/12/29 01:15:55;;;;;;;21.67;13.05;;;0.10;99.90;;;;;;5097547;28;20032;-70
2020/12/29 01:18:21;;;;;;;22.23;13.55;;;0.20;99.90;;;;;;5097764;28;20481;-71
2020/12/29 01:20:48;;;;;;;23.55;14.07;;;0.20;99.90;;;;;;5097635;28;20032;-71
2020/12/29 01:23:14;;;;;;;25.42;14.85;;;0.40;99.90;;;;;;5097957;28;20069;-70
2020/12/29 01:25:42;;;;;;;23.42;14.35;;;0.40;99.90;;;;;;5097646;28;20409;-71
2020/12/29 01:28:08;;;;;;;21.83;14.25;;;0.50;99.90;;;;;;5097607;28;20123;-71
2020/12/29 01:30:34;;;;;;;25.05;15.43;;;0.60;99.90;;;;;;5097819;28;20099;-71
2020/12/29 01:33:00;;;;;;;26.10;15.40;;;0.70;99.90;;;;;;5097514;28;20103;-71
2020/12/29 01:35:26;;;;;;;25.63;15.10;;;0.80;99.90;;;;;;5097158;28;20429;-71
2020/12/29 01:37:51;;;;;;;24.10;13.55;;;0.80;99.90;;;;;;5097719;28;20031;-71
2020/12/29 01:40:17;;;;;;;20.77;13.60;;;0.80;99.90;;;;;;5096967;28;20472;-71
2020/12/29 01:42:44;;;;;;;20.83;13.50;;;0.90;99.90;;;;;;5095666;28;20366;-71
2020/12/29 01:45:13;;;;;;;17.70;12.27;;;0.80;99.90;;;;;;5097264;28;20031;-71
2020/12/29 01:47:40;;;;;;;18.33;11.60;;;0.80;99.90;;;;;;5097464;28;20069;-71
2020/12/29 01:50:15;;;;;;;18.50;12.48;;;0.80;99.90;;;;;;5096147;28;20573;-71
2020/12/29 01:52:40;;;;;;;19.42;12.10;;;0.80;99.90;;;;;;5097364;28;20476;-71
2020/12/29 01:55:07;;;;;;;17.08;11.77;;;0.80;99.90;;;;;;5097050;28;20020;-71
2020/12/29 01:57:34;;;;;;;17.75;11.35;;;0.80;99.90;;;;;;5097302;28;20030;-71
2020/12/29 02:00:06;;;;;;;21.85;12.23;;;0.80;99.90;;;;;;5095458;28;20024;-71
2020/12/29 02:02:32;;;;;;;19.33;12.43;;;0.80;99.90;;;;;;5097173;28;20354;-71
2020/12/29 02:04:58;;;;;;;21.13;13.13;;;0.80;99.90;;;;;;5097134;28;20085;-71
2020/12/29 02:07:23;;;;;;;18.48;12.75;;;0.80;99.90;;;;;;5096514;28;20099;-71
2020/12/29 02:09:49;;;;;;;18.15;11.25;;;0.90;99.90;;;;;;5096792;28;20031;-71
2020/12/29 02:12:24;;;;;;;18.80;11.90;;;0.80;99.90;;;;;;5096051;28;20028;-71
2020/12/29 02:14:50;;;;;;;16.83;11.13;;;0.90;99.90;;;;;;5096705;28;20031;-71
2020/12/29 02:17:16;;;;;;;16.70;10.38;;;0.80;99.90;;;;;;5096389;28;20020;-71
2020/12/29 02:19:41;;;;;;;16.92;10.85;;;0.80;99.90;;;;;;5096894;28;20035;-71
2020/12/29 02:22:07;;;;;;;13.27;9.50;;;0.70;99.90;;;;;;5096453;28;20480;-71
2020/12/29 02:24:32;;;;;;;17.48;10.50;;;0.70;99.90;;;;;;5096057;28;20039;-71
2020/12/29 02:27:01;;;;;;;16.92;11.07;;;0.60;99.90;;;;;;5094770;28;20028;-71
2020/12/29 02:29:27;;;;;;;15.45;10.40;;;0.60;99.90;;;;;;5096700;28;20050;-71
2020/12/29 02:31:52;;;;;;;16.88;10.65;;;0.60;99.90;;;;;;5096635;28;20049;-71
2020/12/29 02:34:18;;;;;;;17.10;11.52;;;0.60;99.90;;;;;;5096567;28;20035;-71
2020/12/29 02:36:43;;;;;;;16.65;11.07;;;0.60;99.90;;;;;;5094756;28;20039;-71
2020/12/29 02:39:09;;;;;;;21.35;12.63;;;0.60;99.90;;;;;;5096276;28;20059;-71
2020/12/29 02:41:34;;;;;;;18.23;11.63;;;0.70;99.90;;;;;;5095806;28;20070;-71
2020/12/29 02:44:01;;;;;;;15.18;10.82;;;0.80;99.90;;;;;;5096420;28;20064;-71
2020/12/29 02:46:26;;;;;;;17.83;11.32;;;0.70;99.90;;;;;;5095787;28;20054;-71
2020/12/29 02:48:52;;;;;;;19.33;11.52;;;0.80;99.90;;;;;;5096345;28;20020;-70
2020/12/29 02:51:17;;;;;;;17.90;11.05;;;0.80;99.90;;;;;;5095964;28;20027;-70
2020/12/29 02:53:43;;;;;;;17.30;10.65;;;0.80;99.90;;;;;;5095908;28;20101;-70
2020/12/29 02:56:08;;;;;;;16.50;10.80;;;0.70;99.90;;;;;;5096173;28;20035;-71
2020/12/29 02:58:34;;;;;;;17.30;10.82;;;0.70;99.90;;;;;;5096131;28;20103;-71
2020/12/29 03:00:59;;;;;;;15.25;9.43;;;0.70;99.90;;;;;;5095967;28;20027;-71
2020/12/29 03:03:25;;;;;;;15.05;10.32;;;0.70;99.90;;;;;;5095401;28;20021;-71
2020/12/29 03:05:50;;;;;;;16.67;11.25;;;0.70;99.90;;;;;;5095896;28;20020;-71
2020/12/29 03:08:16;;;;;;;16.23;11.80;;;0.60;99.90;;;;;;5095617;28;20153;-71
2020/12/29 03:10:42;;;;;;;17.75;11.63;;;0.60;99.90;;;;;;5094047;28;20031;-71
2020/12/29 03:13:07;;;;;;;20.67;13.13;;;0.60;99.90;;;;;;5095835;28;20103;-71
2020/12/29 03:15:33;;;;;;;22.25;14.02;;;0.60;99.90;;;;;;5094254;28;20536;-71
2020/12/29 03:17:59;;;;;;;23.20;13.35;;;0.60;99.90;;;;;;5095171;28;20469;-71
2020/12/29 03:20:24;;;;;;;22.48;13.10;;;0.50;99.90;;;;;;5095131;28;20026;-71
2020/12/29 03:22:50;;;;;;;20.90;12.77;;;0.50;99.90;;;;;;5095256;28;20111;-71
2020/12/29 03:25:15;;;;;;;21.10;13.52;;;0.50;99.90;;;;;;5095574;28;20024;-71
2020/12/29 03:27:41;;;;;;;18.85;12.70;;;0.40;99.90;;;;;;5095576;28;20065;-71
2020/12/29 03:30:06;;;;;;;19.92;12.55;;;0.40;99.90;;;;;;5095212;28;20465;-71
2020/12/29 03:32:32;;;;;;;22.05;12.50;;;0.40;99.90;;;;;;5095205;28;20376;-71
2020/12/29 03:34:57;;;;;;;17.80;11.88;;;0.40;99.90;;;;;;5093851;28;20041;-71
2020/12/29 03:37:23;;;;;;;17.98;11.38;;;0.40;99.90;;;;;;5095342;28;20032;-71
2020/12/29 03:39:51;;;;;;;18.90;11.13;;;0.40;99.90;;;;;;5094763;28;20044;-71
2020/12/29 03:42:16;;;;;;;19.63;11.32;;;0.40;99.90;;;;;;5093754;28;20106;-71
2020/12/29 03:44:42;;;;;;;18.90;10.98;;;0.40;99.90;;;;;;5095210;28;20059;-71
2020/12/29 03:47:07;;;;;;;19.20;11.52;;;0.40;99.90;;;;;;5093361;28;20024;-71
2020/12/29 03:49:33;;;;;;;19.60;11.98;;;0.50;99.90;;;;;;5094846;28;20039;-71
2020/12/29 03:51:58;;;;;;;20.05;12.63;;;0.50;99.90;;;;;;5095074;28;20055;-71
2020/12/29 03:54:24;;;;;;;21.52;12.45;;;0.60;99.90;;;;;;5095050;28;20047;-71
2020/12/29 03:56:50;;;;;;;19.60;12.10;;;0.60;99.90;;;;;;5093308;28;20028;-72
2020/12/29 03:59:15;;;;;;;16.02;10.75;;;0.60;99.90;;;;;;5094916;28;20452;-71
2020/12/29 04:01:41;;;;;;;16.08;10.88;;;0.60;99.90;;;;;;5094807;28;20457;-71
2020/12/29 04:04:08;;;;;;;15.48;10.88;;;0.70;99.90;;;;;;5094624;28;20431;-71
2020/12/29 04:06:34;;;;;;;18.98;11.27;;;0.70;99.90;;;;;;5094598;28;20020;-71
2020/12/29 04:08:59;;;;;;;19.52;12.30;;;0.70;99.90;;;;;;5094430;28;20016;-71
2020/12/29 04:11:25;;;;;;;20.30;12.20;;;0.80;99.90;;;;;;5092864;28;20036;-71
2020/12/29 04:13:51;;;;;;;21.45;12.52;;;0.80;99.90;;;;;;5094448;28;20034;-71
2020/12/29 04:16:19;;;;;;;17.02;11.30;;;0.80;99.90;;;;;;5094628;28;20039;-71
2020/12/29 04:18:44;;;;;;;17.52;11.55;;;0.80;99.90;;;;;;5094622;28;20083;-71
2020/12/29 04:21:11;;;;;;;17.40;11.88;;;0.80;99.90;;;;;;5092965;28;20477;-71
2020/12/29 04:23:37;;;;;;;17.30;12.35;;;0.80;99.90;;;;;;5094568;28;20358;-71
2020/12/29 04:26:03;;;;;;;20.00;11.70;;;0.90;99.90;;;;;;5093055;28;20120;-71
2020/12/29 04:28:28;;;;;;;19.10;11.68;;;0.90;99.90;;;;;;5094462;28;20080;-70
2020/12/29 04:30:54;;;;;;;17.48;11.30;;;0.90;99.90;;;;;;5094407;28;20033;-71
2020/12/29 04:33:20;;;;;;;19.52;11.63;;;0.90;99.90;;;;;;5094426;28;20028;-71
2020/12/29 04:35:45;;;;;;;17.92;11.52;;;1.00;99.90;;;;;;5094342;28;20020;-71
2020/12/29 04:38:11;;;;;;;16.20;11.20;;;1.00;99.90;;;;;;5092899;28;20028;-71
2020/12/29 04:40:36;;;;;;;16.10;11.38;;;1.00;99.90;;;;;;5092358;28;20405;-71
2020/12/29 04:43:02;;;;;;;16.80;11.30;;;1.00;99.90;;;;;;5094272;28;20510;-70
2020/12/29 04:45:28;;;;;;;16.90;10.85;;;1.10;99.90;;;;;;5094225;28;20024;-71
2020/12/29 04:47:54;;;;;;;20.00;11.98;;;1.10;99.90;;;;;;5091976;28;20016;-71
2020/12/29 04:50:21;;;;;;;16.65;11.77;;;1.10;99.90;;;;;;5094216;28;20077;-71
2020/12/29 04:52:56;;;;;;;17.13;11.38;;;1.10;99.90;;;;;;5093591;28;20016;-71
2020/12/29 04:55:29;;;;;;;16.75;10.98;;;1.10;99.90;;;;;;5076398;28;20115;-71
2020/12/29 04:57:55;;;;;;;17.00;10.70;;;1.10;99.90;;;;;;5093878;28;20024;-71
2020/12/29 05:00:23;;;;;;;17.55;10.27;;;1.10;99.90;;;;;;5094117;28;20024;-71
2020/12/29 05:02:48;;;;;;;18.15;11.30;;;1.10;99.90;;;;;;5094054;28;20107;-71
2020/12/29 05:05:14;;;;;;;16.85;11.38;;;1.10;99.90;;;;;;5094035;28;20466;-71
2020/12/29 05:07:40;;;;;;;15.05;10.13;;;1.10;99.90;;;;;;5092742;28;20020;-71
2020/12/29 05:10:07;;;;;;;18.27;11.43;;;1.20;99.90;;;;;;5092084;28;20123;-71
2020/12/29 05:12:32;;;;;;;17.17;11.18;;;1.20;99.90;;;;;;5093711;28;20028;-71
2020/12/29 05:14:58;;;;;;;15.80;10.35;;;1.20;99.90;;;;;;5092553;28;20035;-71
2020/12/29 05:17:24;;;;;;;17.17;10.13;;;1.20;99.90;;;;;;5094078;28;20032;-71
2020/12/29 05:19:50;;;;;;;15.20;10.00;;;1.20;99.90;;;;;;5093992;28;20028;-70
2020/12/29 05:22:20;;;;;;;14.10;10.40;;;1.20;99.90;;;;;;5075358;28;20024;-71
2020/12/29 05:24:46;;;;;;;14.63;10.15;;;1.20;99.90;;;;;;5093972;28;20453;-71
2020/12/29 05:27:12;;;;;;;15.50;10.13;;;1.20;99.90;;;;;;5093936;28;20026;-71
2020/12/29 05:29:37;;;;;;;14.93;10.27;;;1.30;99.90;;;;;;5093703;28;20103;-71
2020/12/29 05:32:03;;;;;;;14.93;10.73;;;1.30;99.90;;;;;;5093822;28;20099;-71
2020/12/29 05:34:29;;;;;;;14.85;10.52;;;1.30;99.90;;;;;;5092392;28;20040;-71
2020/12/29 05:36:57;;;;;;;17.00;11.13;;;1.30;99.90;;;;;;5093205;28;20469;-71
2020/12/29 05:39:25;;;;;;;16.95;10.35;;;1.30;99.90;;;;;;5091686;28;20044;-71
2020/12/29 05:41:53;;;;;;;15.13;11.00;;;1.30;99.90;;;;;;5093419;28;20056;-71
2020/12/29 05:44:29;;;;;;;16.63;11.25;;;1.30;99.90;;;;;;5092519;28;20024;-71
2020/12/29 05:46:56;;;;;;;16.45;11.15;;;1.30;99.90;;;;;;5092410;28;20465;-71
2020/12/29 05:49:22;;;;;;;17.10;11.38;;;1.30;99.90;;;;;;5093421;28;20020;-71
2020/12/29 05:51:50;;;;;;;16.30;10.93;;;1.30;99.90;;;;;;5093678;28;20027;-71
2020/12/29 05:54:16;;;;;;;16.40;11.13;;;1.30;99.90;;;;;;5093375;28;20021;-71
2020/12/29 05:56:43;;;;;;;14.70;11.02;;;1.40;99.90;;;;;;5092438;28;20024;-71
2020/12/29 05:59:12;;;;;;;18.63;11.40;;;1.40;99.90;;;;;;5093288;28;20035;-71
2020/12/29 06:01:41;;;;;;;19.38;11.02;;;1.30;99.90;;;;;;5096269;28;20035;-71
2020/12/29 06:04:08;;;;;;;15.43;10.70;;;1.30;99.90;;;;;;5096949;28;20016;-71
2020/12/29 06:06:35;;;;;;;15.27;11.02;;;1.30;99.90;;;;;;5096913;28;20028;-71
2020/12/29 06:09:05;;;;;;;15.88;11.00;;;1.30;99.90;;;;;;5096605;28;20020;-71
2020/12/29 06:11:38;;;;;;;18.20;10.77;;;1.40;99.90;;;;;;5095935;28;20554;-71
2020/12/29 06:14:12;;;;;;;;;;;1.40;99.90;;;;;;5095749;28;20508;-71
2020/12/29 06:16:40;;;;;;;24.15;11.45;;;1.40;99.90;;;;;;5096688;28;19904;-71
2020/12/29 06:19:19;;;;;;;19.52;11.90;;;1.50;99.90;;;;;;5096320;28;20077;-71
2020/12/29 06:22:05;;;;;;;20.05;14.32;;;1.50;99.90;;;;;;5096539;28;20026;-71
2020/12/29 06:24:32;;;;;;;21.27;14.40;;;1.50;99.90;;;;;;5096311;28;20016;-71
2020/12/29 06:27:01;;;;;;;18.35;12.80;;;1.60;99.90;;;;;;5096782;28;20023;-71
2020/12/29 06:29:32;;;;;;;20.20;13.73;;;1.60;99.90;;;;;;5096720;28;20465;-71
2020/12/29 06:32:04;;;;;;;20.58;13.77;;;1.60;99.90;;;;;;5095250;28;20483;-71
2020/12/29 06:34:33;;;;;;;21.40;13.80;;;1.60;99.90;;;;;;5095229;28;20024;-71
2020/12/29 06:37:05;;;;;;;20.80;13.77;;;1.60;99.90;;;;;;5094769;28;20035;-71
2020/12/29 06:39:31;;;;;;;20.83;13.88;;;1.60;99.90;;;;;;5096244;28;20119;-71
2020/12/29 06:41:57;;;;;;;24.20;15.35;;;1.60;99.90;;;;;;5096305;28;20115;-71
2020/12/29 06:44:22;;;;;;;21.92;13.45;;;1.60;99.90;;;;;;5096061;28;20098;-71
2020/12/29 06:46:56;;;;;;;20.65;13.35;;;1.60;99.90;;;;;;5094537;28;20028;-71
2020/12/29 06:49:22;;;;;;;18.60;12.57;;;1.50;99.90;;;;;;5096061;28;20024;-71
2020/12/29 06:52:17;;;;;;;19.02;12.32;;;1.50;99.90;;;;;;5096251;28;20078;-71
2020/12/29 06:54:48;;;;;;;19.33;13.18;;;1.50;99.90;;;;;;5096128;28;20373;-71
2020/12/29 06:57:14;;;;;;;20.38;13.13;;;1.60;99.90;;;;;;5096148;28;20453;-71
2020/12/29 06:59:41;;;;;;;23.65;14.40;;;1.50;99.90;;;;;;5096158;28;20059;-71
2020/12/29 07:02:17;;;;;;;23.40;14.18;;;1.50;99.90;;;;;;5095415;28;20457;-71
2020/12/29 07:04:52;;;;;;;20.73;13.02;;;1.50;99.90;;;;;;5095670;28;20020;-71
2020/12/29 07:07:33;;;;;;;27.23;14.57;;;1.40;99.90;;;;;;5095902;28;20020;-71
2020/12/29 07:10:09;;;;;;;23.08;13.88;;;1.30;99.90;;;;;;5095852;28;20403;-71
2020/12/29 07:12:35;;;;;;;22.65;13.57;;;1.20;99.90;;;;;;5095574;28;20031;-71
2020/12/29 07:15:04;;;;;;;24.67;13.82;;;1.10;99.90;;;;;;5095306;28;20025;-71
2020/12/29 07:17:31;;;;;;;23.85;14.50;;;1.10;99.90;;;;;;5077081;28;20416;-71
2020/12/29 07:19:57;;;;;;;22.05;14.30;;;1.00;99.90;;;;;;5095726;28;20024;-71
2020/12/29 07:22:24;;;;;;;22.20;14.60;;;0.90;99.90;;;;;;5095718;28;20074;-71
2020/12/29 07:24:50;;;;;;;22.83;14.60;;;0.80;99.90;;;;;;5095793;28;20020;-71
2020/12/29 07:27:20;;;;;;;23.98;14.60;;;0.70;99.90;;;;;;5095449;28;20024;-71
2020/12/29 07:30:00;;;;;;;23.75;14.48;;;0.60;99.90;;;;;;5095622;28;20016;-71
2020/12/29 07:32:27;;;;;;;25.35;14.80;;;0.60;99.90;;;;;;5093792;28;20423;-71
2020/12/29 07:34:53;;;;;;;26.92;16.15;;;0.50;99.90;;;;;;5094078;28;20027;-72
2020/12/29 07:37:21;;;;;;;31.55;17.20;;;0.50;99.90;;;;;;5095457;28;20030;-71
2020/12/29 07:39:47;;;;;;;34.05;17.38;;;0.40;99.90;;;;;;5094973;28;20040;-71
2020/12/29 07:42:14;;;;;;;30.25;17.45;;;0.50;99.90;;;;;;5095170;28;20055;-71
2020/12/29 07:44:40;;;;;;;33.05;18.23;;;0.40;99.90;;;;;;5095302;28;20023;-71
2020/12/29 07:47:06;;;;;;;31.60;17.05;;;0.40;99.90;;;;;;5095242;28;20020;-71
2020/12/29 07:49:32;;;;;;;29.77;17.00;;;0.30;99.90;;;;;;5076458;28;20050;-71
2020/12/29 07:51:58;;;;;;;28.75;17.45;;;0.30;99.90;;;;;;5095122;28;20123;-71
2020/12/29 07:54:24;;;;;;;26.73;16.98;;;0.30;99.90;;;;;;5094450;28;20030;-70
2020/12/29 07:56:49;;;;;;;33.33;18.58;;;0.30;99.90;;;;;;5094936;28;20464;-71
2020/12/29 07:59:15;;;;;;;31.05;18.52;;;0.40;99.90;;;;;;5094437;28;20028;-71
2020/12/29 08:01:57;;;;;;;34.60;18.83;;;0.40;99.90;;;;;;5094853;28;20024;-71
2020/12/29 08:04:26;;;;;;;34.07;19.80;;;0.50;99.90;;;;;;5094671;28;20480;-71
2020/12/29 08:06:51;;;;;;;34.08;18.75;;;0.60;99.90;;;;;;5094834;28;20258;-71
2020/12/29 08:09:17;;;;;;;35.58;19.40;;;0.70;99.90;;;;;;5094760;28;20017;-71
2020/12/29 08:11:43;;;;;;;32.30;17.45;;;0.90;99.90;;;;;;5093504;28;20469;-71
2020/12/29 08:14:10;;;;;;;31.98;17.75;;;1.00;99.90;;;;;;5094722;28;20057;-71
2020/12/29 08:16:35;;;;;;;27.58;16.13;;;1.10;99.90;;;;;;5092830;28;20128;-71
2020/12/29 08:19:01;;;;;;;26.63;16.83;;;1.20;99.90;;;;;;5075921;28;20476;-71
2020/12/29 08:21:29;;;;;;;27.20;15.52;;;1.40;99.90;;;;;;5094484;28;20031;-71
2020/12/29 08:23:57;;;;;;;25.42;15.65;;;1.70;99.90;;;;;;5093881;28;20020;-71
2020/12/29 08:26:23;;;;;;;25.58;14.18;;;2.20;99.90;;;;;;5094545;28;20023;-72
2020/12/29 08:28:50;;;;;;;25.40;14.23;;;2.60;99.90;;;;;;5094480;28;20018;-71
2020/12/29 08:31:18;;;;;;;19.42;11.93;;;2.90;99.90;;;;;;5094413;28;20024;-71
2020/12/29 08:33:46;;;;;;;20.08;11.45;;;3.00;99.90;;;;;;5094386;28;20027;-71
2020/12/29 08:36:24;;;;;;;17.83;10.88;;;3.10;99.90;;;;;;5092991;28;20385;-72
2020/12/29 08:39:19;;;;;;;17.58;10.63;;;3.10;99.90;;;;;;5092545;28;20028;-71
2020/12/29 08:41:52;;;;;;;18.40;10.63;;;3.50;99.90;;;;;;5092321;28;20028;-71
2020/12/29 08:44:20;;;;;;;15.60;10.00;;;3.80;99.90;;;;;;5092502;28;20386;-71
2020/12/29 08:46:46;;;;;;;15.93;8.80;;;3.60;99.90;;;;;;5094258;28;20016;-71
2020/12/29 08:49:11;;;;;;;15.07;9.40;;;3.50;99.90;;;;;;5093928;28;20032;-71
2020/12/29 08:51:45;;;;;;;13.82;8.50;;;3.60;99.90;;;;;;5093564;28;20081;-71
2020/12/29 08:54:15;;;;;;;15.05;8.90;;;3.40;99.90;;;;;;5093842;28;20111;-71
2020/12/29 08:56:42;;;;;;;15.63;8.10;;;3.90;99.90;;;;;;5094072;28;20028;-71
2020/12/29 08:59:13;;;;;;;12.40;8.27;;;4.50;99.90;;;;;;5092521;28;20465;-71
2020/12/29 09:01:41;;;;;;;12.05;8.15;;;4.60;99.90;;;;;;5093714;28;20111;-71
2020/12/29 09:04:30;;;;;;;12.18;8.63;;;4.50;99.90;;;;;;5094005;28;20024;-72
2020/12/29 09:06:59;;;;;;;15.15;9.75;;;4.10;99.90;;;;;;5093907;28;20031;-72
2020/12/29 09:09:25;;;;;;;16.67;9.52;;;3.90;99.90;;;;;;5093718;28;20047;-71
2020/12/29 09:12:12;;;;;;;13.50;8.95;;;3.70;99.90;;;;;;5094084;28;20449;-71
2020/12/29 09:14:48;;;;;;;18.40;10.80;;;3.60;99.90;;;;;;5093328;28;20043;-71
2020/12/29 09:17:15;;;;;;;17.40;10.65;;;3.50;99.90;;;;;;5092329;28;20032;-70
2020/12/29 09:19:41;;;;;;;19.75;12.18;;;3.40;99.90;;;;;;5093892;28;20428;-70
2020/12/29 09:22:09;;;;;;;24.27;13.50;;;3.40;99.90;;;;;;5093830;28;20099;-70
2020/12/29 09:24:35;;;;;;;24.80;14.27;;;3.10;99.90;;;;;;5093915;28;20453;-70
2020/12/29 09:27:01;;;;;;;21.10;13.35;;;2.90;99.90;;;;;;5092362;28;20074;-71
2020/12/29 09:29:27;;;;;;;19.17;13.05;;;2.90;99.90;;;;;;5092269;28;20415;-71
2020/12/29 09:31:54;;;;;;;20.73;12.93;;;2.80;99.90;;;;;;5093786;28;20028;-71
2020/12/29 09:34:21;;;;;;;21.13;12.55;;;2.80;99.90;;;;;;5076762;28;20030;-71
2020/12/29 09:36:46;;;;;;;23.90;13.05;;;2.70;99.90;;;;;;5096332;28;20024;-71
2020/12/29 09:39:12;;;;;;;20.67;12.93;;;2.70;99.90;;;;;;5097119;28;20430;-71
2020/12/29 09:41:37;;;;;;;22.02;13.35;;;2.70;99.90;;;;;;5095985;28;20032;-71
2020/12/29 09:44:04;;;;;;;24.55;14.27;;;2.70;99.90;;;;;;5109196;28;20046;-71
2020/12/29 09:46:38;;;;;;;26.10;14.57;;;2.80;99.90;;;;;;5117450;28;20016;-71
2020/12/29 09:49:04;;;;;;;25.70;14.50;;;2.80;99.90;;;;;;5117705;28;20094;-71
2020/12/29 09:51:30;;;;;;;28.08;15.50;;;2.90;99.90;;;;;;5117809;28;20443;-71
2020/12/29 09:53:55;;;;;;;27.42;15.68;;;2.90;99.90;;;;;;5117783;28;20108;-71
2020/12/29 09:56:22;;;;;;;26.42;14.85;;;2.90;99.90;;;;;;5116825;28;20034;-70
2020/12/29 09:58:49;;;;;;;26.00;14.93;;;3.00;99.90;;;;;;5117175;28;20016;-71
2020/12/29 10:01:14;;;;;;;27.77;13.48;;;3.00;99.90;;;;;;5099151;28;20028;-71
2020/12/29 10:03:40;;;;;;;23.08;12.90;;;3.10;99.90;;;;;;5095094;28;20024;-71
2020/12/29 10:06:05;;;;;;;21.67;11.60;;;3.20;99.90;;;;;;5096067;28;20473;-71
2020/12/29 10:08:31;;;;;;;19.27;11.30;;;3.20;99.90;;;;;;5096042;28;20056;-71
2020/12/29 10:10:57;;;;;;;25.35;11.30;;;3.30;99.90;;;;;;5097062;28;20040;-71
2020/12/29 10:13:22;;;;;;;19.23;11.02;;;3.30;99.90;;;;;;5097047;28;20347;-71
2020/12/29 10:15:48;;;;;;;20.67;10.90;;;3.30;99.90;;;;;;5096935;28;20099;-70
2020/12/29 10:18:14;;;;;;;22.25;11.80;;;3.40;99.90;;;;;;5096834;28;20483;-71
2020/12/29 10:20:39;;;;;;;26.13;9.30;;;3.50;99.90;;;;;;5095271;28;20020;-71
2020/12/29 10:23:05;;;;;;;27.33;10.88;;;4.60;99.90;;;;;;5095764;28;20050;-71
2020/12/29 10:25:32;;;;;;;18.65;8.77;;;4.90;99.90;;;;;;5096235;28;20020;-71
2020/12/29 10:27:57;;;;;;;22.83;9.98;;;4.50;99.90;;;;;;5096732;28;20039;-71
2020/12/29 10:30:23;;;;;;;21.65;10.02;;;4.30;99.90;;;;;;5094926;28;20505;-71
2020/12/29 10:32:48;;;;;;;20.85;9.88;;;4.00;99.90;;;;;;5096286;28;20028;-71
2020/12/29 10:35:14;;;;;;;19.33;9.93;;;4.00;99.90;;;;;;5096612;28;20107;-70
2020/12/29 10:37:39;;;;;;;22.73;10.02;;;3.90;99.90;;;;;;5096522;28;20415;-71
2020/12/29 10:40:05;;;;;;;22.15;10.70;;;4.00;99.90;;;;;;5096022;28;20124;-70
2020/12/29 10:42:31;;;;;;;21.20;11.45;;;3.90;99.90;;;;;;5096057;28;20115;-70
2020/12/29 10:44:57;;;;;;;23.27;11.68;;;4.00;99.90;;;;;;5096479;28;20031;-70
2020/12/29 10:47:22;;;;;;;20.25;10.73;;;4.00;99.90;;;;;;5095641;28;20469;-70
2020/12/29 10:49:48;;;;;;;28.90;12.50;;;4.00;99.90;;;;;;5094886;28;20469;-71
2020/12/29 10:52:13;;;;;;;21.33;11.55;;;4.00;99.90;;;;;;5096014;28;20350;-70
2020/12/29 10:54:39;;;;;;;20.63;11.15;;;4.00;99.90;;;;;;5094665;28;20020;-71
2020/12/29 10:57:04;;;;;;;20.95;12.02;;;4.10;99.90;;;;;;5095588;28;20026;-71
2020/12/29 10:59:30;;;;;;;24.85;11.35;;;4.10;99.90;;;;;;5096189;28;20028;-71
2020/12/29 11:01:56;;;;;;;23.75;10.35;;;4.10;99.90;;;;;;5095865;28;20036;-71
2020/12/29 11:04:23;;;;;;;20.27;11.30;;;4.20;99.90;;;;;;5095855;28;20145;-71
2020/12/29 11:06:49;;;;;;;26.20;11.88;;;4.20;99.90;;;;;;5094202;28;20437;-70
2020/12/29 11:09:15;;;;;;;24.45;11.18;;;4.20;99.90;;;;;;5095987;28;20103;-70
2020/12/29 11:11:41;;;;;;;18.27;9.90;;;4.30;99.90;;;;;;5095670;28;20089;-70
2020/12/29 11:14:06;;;;;;;16.83;9.75;;;4.30;99.90;;;;;;5094672;28;20105;-71
2020/12/29 11:16:32;;;;;;;19.10;10.15;;;4.30;99.90;;;;;;5094859;28;20028;-71
2020/12/29 11:18:57;;;;;;;15.65;9.45;;;4.40;99.90;;;;;;5095753;28;20032;-70
2020/12/29 11:21:23;;;;;;;23.27;9.48;;;4.40;99.90;;;;;;5094190;28;20047;-71
2020/12/29 11:23:48;;;;;;;15.73;9.27;;;4.50;99.90;;;;;;5095380;28;20028;-70
2020/12/29 11:26:16;;;;;;;18.60;9.90;;;4.50;99.90;;;;;;5095399;28;20028;-71
2020/12/29 11:28:41;;;;;;;21.42;9.30;;;4.60;99.90;;;;;;5095595;28;20373;-71
2020/12/29 11:31:19;;;;;;;18.35;8.98;;;4.70;99.90;;;;;;5093674;28;20024;-70
2020/12/29 11:33:46;;;;;;;15.50;8.30;;;4.70;99.90;;;;;;5095187;28;20457;-71
2020/12/29 11:36:15;;;;;;;18.00;9.60;;;4.80;99.90;;;;;;5093974;28;20028;-71
2020/12/29 11:38:41;;;;;;;19.73;9.35;;;4.70;99.90;;;;;;5095097;28;20043;-71
2020/12/29 11:41:07;;;;;;;16.25;9.48;;;4.70;99.90;;;;;;5095363;28;20448;-71
2020/12/29 11:43:32;;;;;;;19.55;11.82;;;4.60;99.90;;;;;;5093492;28;20059;-71
2020/12/29 11:45:58;;;;;;;18.45;10.60;;;4.50;99.90;;;;;;5095209;28;20024;-71
2020/12/29 11:48:23;;;;;;;13.80;8.65;;;4.50;99.90;;;;;;5095231;28;20031;-71
2020/12/29 11:50:51;;;;;;;23.50;10.98;;;4.50;99.90;;;;;;5095219;28;20028;-71
2020/12/29 11:53:17;;;;;;;17.63;9.85;;;4.50;99.90;;;;;;5094609;28;20473;-71
2020/12/29 11:55:43;;;;;;;20.05;12.23;;;4.50;99.90;;;;;;5094824;28;20024;-71
2020/12/29 11:58:08;;;;;;;22.90;13.75;;;4.50;99.90;;;;;;5094064;28;20024;-70
2020/12/29 12:00:34;;;;;;;26.85;13.90;;;4.50;99.90;;;;;;5094952;28;20115;-70
2020/12/29 12:02:59;;;;;;;29.98;15.27;;;4.40;99.90;;;;;;5094876;28;20526;-71
2020/12/29 12:05:25;;;;;;;26.10;14.70;;;4.40;99.90;;;;;;5094876;28;20028;-71
2020/12/29 12:07:50;;;;;;;25.27;14.50;;;4.40;99.90;;;;;;5094318;28;20051;-71
2020/12/29 12:10:16;;;;;;;30.17;16.10;;;4.40;99.90;;;;;;5094799;28;20024;-71
2020/12/29 12:12:41;;;;;;;27.67;15.98;;;4.30;99.90;;;;;;5094782;28;20097;-70
2020/12/29 12:15:08;;;;;;;37.03;19.13;;;4.20;99.90;;;;;;5094657;28;20099;-71
2020/12/29 12:17:34;;;;;;;38.92;18.50;;;4.20;99.90;;;;;;5094617;28;20107;-70
2020/12/29 12:19:59;;;;;;;35.05;19.98;;;4.10;99.90;;;;;;5094499;28;20058;-71
2020/12/29 12:22:25;;;;;;;37.08;20.52;;;4.00;99.90;;;;;;5094498;28;20056;-70
2020/12/29 12:24:50;;;;;;;41.53;22.08;;;4.00;99.90;;;;;;5094500;28;20033;-71
2020/12/29 12:27:16;;;;;;;38.08;20.55;;;3.90;99.90;;;;;;5094180;28;20020;-70
2020/12/29 12:29:42;;;;;;;40.80;21.70;;;3.90;99.90;;;;;;5094432;28;20099;-72
2020/12/29 12:32:07;;;;;;;35.47;20.45;;;4.00;99.90;;;;;;5094375;28;20107;-71
2020/12/29 12:34:33;;;;;;;37.65;20.38;;;3.90;99.90;;;;;;5093245;28;20028;-71
2020/12/29 12:36:58;;;;;;;41.85;21.65;;;3.90;99.90;;;;;;5094372;28;20028;-71